sensor_id;sensor_type;location;lat;lon;timestamp;P1;durP1;ratioP1;P2;durP2;ratioP2
72369;SDS011;60343;-32.030;115.880;2022-09-09T00:00:11;5.22;;;1.35;;
72369;SDS011;60343;-32.030;115.880;2022-09-09T00:02:47;4.80;;;1.50;;
72369;SDS011;60343;-32.030;115.880;2022-09-09T00:05:23;6.28;;;1.58;;
72369;SDS011;60343;-32.030;115.880;2022-09-09T00:07:55;4.38;;;1.30;;
72369;SDS011;60343;-32.030;115.880;2022-09-09T00:10:29;4.78;;;1.50;;
72369;SDS011;60343;-32.030;115.880;2022-09-09T00:13:00;8.00;;;1.40;;
72369;SDS011;60343;-32.030;115.880;2022-09-09T00:15:34;6.03;;;1.55;;
72369;SDS011;60343;-32.030;115.880;2022-09-09T00:18:17;5.10;;;1.38;;
72369;SDS011;60343;-32.030;115.880;2022-09-09T00:20:52;6.47;;;1.33;;
72369;SDS011;60343;-32.030;115.880;2022-09-09T00:23:24;5.85;;;1.65;;
72369;SDS011;60343;-32.030;115.880;2022-09-09T00:25:56;4.78;;;1.25;;
72369;SDS011;60343;-32.030;115.880;2022-09-09T00:28:33;6.13;;;1.25;;
72369;SDS011;60343;-32.030;115.880;2022-09-09T00:31:10;6.10;;;1.25;;
72369;SDS011;60343;-32.030;115.880;2022-09-09T00:33:45;4.47;;;1.38;;
72369;SDS011;60343;-32.030;115.880;2022-09-09T00:36:16;7.97;;;1.40;;
72369;SDS011;60343;-32.030;115.880;2022-09-09T00:38:52;5.18;;;1.50;;
72369;SDS011;60343;-32.030;115.880;2022-09-09T00:41:22;7.65;;;1.67;;
72369;SDS011;60343;-32.030;115.880;2022-09-09T00:46:44;4.45;;;1.02;;
72369;SDS011;60343;-32.030;115.880;2022-09-09T00:49:30;7.53;;;1.23;;
72369;SDS011;60343;-32.030;115.880;2022-09-09T00:52:11;8.95;;;1.23;;
72369;SDS011;60343;-32.030;115.880;2022-09-09T00:54:50;4.80;;;1.10;;
72369;SDS011;60343;-32.030;115.880;2022-09-09T00:57:26;4.43;;;0.90;;
72369;SDS011;60343;-32.030;115.880;2022-09-09T00:59:57;2.55;;;0.77;;
72369;SDS011;60343;-32.030;115.880;2022-09-09T01:02:43;3.67;;;0.70;;
72369;SDS011;60343;-32.030;115.880;2022-09-09T01:05:26;3.63;;;0.70;;
72369;SDS011;60343;-32.030;115.880;2022-09-09T01:08:10;2.38;;;0.57;;
72369;SDS011;60343;-32.030;115.880;2022-09-09T01:10:52;2.38;;;0.40;;
72369;SDS011;60343;-32.030;115.880;2022-09-09T01:13:23;7.60;;;0.90;;
72369;SDS011;60343;-32.030;115.880;2022-09-09T01:15:53;2.50;;;0.75;;
72369;SDS011;60343;-32.030;115.880;2022-09-09T01:18:23;3.03;;;0.60;;
72369;SDS011;60343;-32.030;115.880;2022-09-09T01:21:02;3.45;;;0.80;;
72369;SDS011;60343;-32.030;115.880;2022-09-09T01:23:41;2.30;;;0.50;;
72369;SDS011;60343;-32.030;115.880;2022-09-09T01:26:34;3.05;;;0.60;;
72369;SDS011;60343;-32.030;115.880;2022-09-09T01:29:06;2.67;;;0.50;;
72369;SDS011;60343;-32.030;115.880;2022-09-09T01:31:36;4.47;;;0.65;;
72369;SDS011;60343;-32.030;115.880;2022-09-09T01:34:10;2.03;;;0.60;;
72369;SDS011;60343;-32.030;115.880;2022-09-09T01:36:40;3.88;;;0.80;;
72369;SDS011;60343;-32.030;115.880;2022-09-09T01:39:13;6.00;;;0.93;;
72369;SDS011;60343;-32.030;115.880;2022-09-09T01:41:47;3.45;;;0.50;;
72369;SDS011;60343;-32.030;115.880;2022-09-09T01:44:16;4.60;;;0.90;;
72369;SDS011;60343;-32.030;115.880;2022-09-09T01:46:45;3.22;;;0.60;;
72369;SDS011;60343;-32.030;115.880;2022-09-09T01:49:13;1.92;;;0.50;;
72369;SDS011;60343;-32.030;115.880;2022-09-09T01:51:44;5.95;;;0.90;;
72369;SDS011;60343;-32.030;115.880;2022-09-09T01:54:15;4.32;;;0.85;;
72369;SDS011;60343;-32.030;115.880;2022-09-09T01:56:53;1.73;;;0.50;;
72369;SDS011;60343;-32.030;115.880;2022-09-09T01:59:39;3.08;;;0.70;;
72369;SDS011;60343;-32.030;115.880;2022-09-09T02:02:16;4.45;;;0.82;;
72369;SDS011;60343;-32.030;115.880;2022-09-09T02:04:48;1.90;;;0.55;;
72369;SDS011;60343;-32.030;115.880;2022-09-09T02:07:28;3.58;;;0.70;;
72369;SDS011;60343;-32.030;115.880;2022-09-09T02:10:05;3.60;;;0.40;;
72369;SDS011;60343;-32.030;115.880;2022-09-09T02:12:46;2.38;;;0.45;;
72369;SDS011;60343;-32.030;115.880;2022-09-09T02:15:18;3.80;;;0.60;;
72369;SDS011;60343;-32.030;115.880;2022-09-09T02:17:50;2.80;;;0.60;;
72369;SDS011;60343;-32.030;115.880;2022-09-09T02:20:19;3.72;;;0.50;;
72369;SDS011;60343;-32.030;115.880;2022-09-09T02:22:49;3.22;;;0.40;;
72369;SDS011;60343;-32.030;115.880;2022-09-09T02:25:19;2.20;;;0.40;;
72369;SDS011;60343;-32.030;115.880;2022-09-09T02:27:58;2.92;;;0.55;;
72369;SDS011;60343;-32.030;115.880;2022-09-09T02:30:28;2.25;;;0.50;;
72369;SDS011;60343;-32.030;115.880;2022-09-09T02:32:58;1.60;;;0.40;;
72369;SDS011;60343;-32.030;115.880;2022-09-09T02:35:30;3.80;;;0.60;;
72369;SDS011;60343;-32.030;115.880;2022-09-09T02:38:01;2.67;;;0.52;;
72369;SDS011;60343;-32.030;115.880;2022-09-09T02:40:33;2.50;;;0.68;;
72369;SDS011;60343;-32.030;115.880;2022-09-09T02:43:07;1.42;;;0.32;;
72369;SDS011;60343;-32.030;115.880;2022-09-09T02:45:38;1.83;;;0.60;;
72369;SDS011;60343;-32.030;115.880;2022-09-09T02:48:14;3.78;;;0.73;;
72369;SDS011;60343;-32.030;115.880;2022-09-09T02:50:49;2.00;;;0.43;;
72369;SDS011;60343;-32.030;115.880;2022-09-09T02:53:37;3.30;;;0.43;;
72369;SDS011;60343;-32.030;115.880;2022-09-09T02:56:14;2.22;;;0.50;;
72369;SDS011;60343;-32.030;115.880;2022-09-09T02:58:50;3.08;;;0.40;;
72369;SDS011;60343;-32.030;115.880;2022-09-09T03:01:21;2.45;;;0.50;;
72369;SDS011;60343;-32.030;115.880;2022-09-09T03:03:49;3.17;;;0.50;;
72369;SDS011;60343;-32.030;115.880;2022-09-09T03:06:17;1.73;;;0.40;;
72369;SDS011;60343;-32.030;115.880;2022-09-09T03:08:45;1.92;;;0.50;;
72369;SDS011;60343;-32.030;115.880;2022-09-09T03:11:17;3.22;;;0.60;;
72369;SDS011;60343;-32.030;115.880;2022-09-09T03:13:51;2.22;;;0.57;;
72369;SDS011;60343;-32.030;115.880;2022-09-09T03:16:19;1.27;;;0.60;;
72369;SDS011;60343;-32.030;115.880;2022-09-09T03:18:47;3.08;;;0.40;;
72369;SDS011;60343;-32.030;115.880;2022-09-09T03:21:15;1.95;;;0.40;;
72369;SDS011;60343;-32.030;115.880;2022-09-09T03:23:43;3.53;;;0.55;;
72369;SDS011;60343;-32.030;115.880;2022-09-09T03:26:12;2.72;;;0.47;;
72369;SDS011;60343;-32.030;115.880;2022-09-09T03:28:40;3.55;;;0.68;;
72369;SDS011;60343;-32.030;115.880;2022-09-09T03:31:17;2.58;;;0.50;;
72369;SDS011;60343;-32.030;115.880;2022-09-09T03:33:45;1.98;;;0.50;;
72369;SDS011;60343;-32.030;115.880;2022-09-09T03:36:13;3.05;;;0.52;;
72369;SDS011;60343;-32.030;115.880;2022-09-09T03:38:41;2.90;;;0.57;;
72369;SDS011;60343;-32.030;115.880;2022-09-09T03:41:09;2.90;;;0.57;;
72369;SDS011;60343;-32.030;115.880;2022-09-09T03:43:37;3.22;;;0.70;;
72369;SDS011;60343;-32.030;115.880;2022-09-09T03:46:05;2.63;;;0.50;;
72369;SDS011;60343;-32.030;115.880;2022-09-09T03:48:43;1.38;;;0.40;;
72369;SDS011;60343;-32.030;115.880;2022-09-09T03:51:12;1.58;;;0.40;;
72369;SDS011;60343;-32.030;115.880;2022-09-09T03:53:41;2.30;;;0.40;;
72369;SDS011;60343;-32.030;115.880;2022-09-09T03:56:09;4.20;;;0.70;;
72369;SDS011;60343;-32.030;115.880;2022-09-09T03:58:37;3.38;;;0.65;;
72369;SDS011;60343;-32.030;115.880;2022-09-09T04:01:06;2.47;;;0.52;;
72369;SDS011;60343;-32.030;115.880;2022-09-09T04:03:35;3.05;;;0.60;;
72369;SDS011;60343;-32.030;115.880;2022-09-09T04:06:10;1.85;;;0.50;;
72369;SDS011;60343;-32.030;115.880;2022-09-09T04:08:39;0.70;;;0.30;;
72369;SDS011;60343;-32.030;115.880;2022-09-09T04:11:07;2.80;;;0.40;;
72369;SDS011;60343;-32.030;115.880;2022-09-09T04:13:36;1.02;;;0.30;;
72369;SDS011;60343;-32.030;115.880;2022-09-09T04:16:04;1.83;;;0.40;;
72369;SDS011;60343;-32.030;115.880;2022-09-09T04:18:32;3.17;;;0.57;;
72369;SDS011;60343;-32.030;115.880;2022-09-09T04:21:09;1.98;;;0.32;;
72369;SDS011;60343;-32.030;115.880;2022-09-09T04:23:37;1.30;;;0.40;;
72369;SDS011;60343;-32.030;115.880;2022-09-09T04:26:06;1.05;;;0.22;;
72369;SDS011;60343;-32.030;115.880;2022-09-09T04:28:35;1.35;;;0.30;;
72369;SDS011;60343;-32.030;115.880;2022-09-09T04:31:06;1.85;;;0.40;;
72369;SDS011;60343;-32.030;115.880;2022-09-09T04:33:38;0.85;;;0.20;;
72369;SDS011;60343;-32.030;115.880;2022-09-09T04:36:12;0.95;;;0.25;;
72369;SDS011;60343;-32.030;115.880;2022-09-09T04:38:41;1.60;;;0.20;;
72369;SDS011;60343;-32.030;115.880;2022-09-09T04:41:09;1.65;;;0.30;;
72369;SDS011;60343;-32.030;115.880;2022-09-09T04:43:37;1.85;;;0.25;;
72369;SDS011;60343;-32.030;115.880;2022-09-09T04:46:05;1.63;;;0.22;;
72369;SDS011;60343;-32.030;115.880;2022-09-09T04:48:34;2.10;;;0.40;;
72369;SDS011;60343;-32.030;115.880;2022-09-09T04:51:02;1.90;;;0.40;;
72369;SDS011;60343;-32.030;115.880;2022-09-09T04:53:38;7.72;;;4.38;;
72369;SDS011;60343;-32.030;115.880;2022-09-09T04:56:07;2.85;;;1.05;;
72369;SDS011;60343;-32.030;115.880;2022-09-09T04:58:37;1.50;;;0.40;;
72369;SDS011;60343;-32.030;115.880;2022-09-09T05:01:06;1.65;;;0.30;;
72369;SDS011;60343;-32.030;115.880;2022-09-09T05:03:35;3.13;;;0.77;;
72369;SDS011;60343;-32.030;115.880;2022-09-09T05:06:05;3.13;;;1.13;;
72369;SDS011;60343;-32.030;115.880;2022-09-09T05:08:40;4.40;;;1.10;;
72369;SDS011;60343;-32.030;115.880;2022-09-09T05:13:55;3.97;;;0.63;;
72369;SDS011;60343;-32.030;115.880;2022-09-09T05:16:23;3.22;;;0.68;;
72369;SDS011;60343;-32.030;115.880;2022-09-09T05:18:51;2.33;;;0.50;;
72369;SDS011;60343;-32.030;115.880;2022-09-09T05:21:20;3.20;;;0.60;;
72369;SDS011;60343;-32.030;115.880;2022-09-09T05:23:55;2.17;;;0.43;;
72369;SDS011;60343;-32.030;115.880;2022-09-09T05:26:23;3.00;;;0.60;;
72369;SDS011;60343;-32.030;115.880;2022-09-09T05:28:51;2.47;;;0.40;;
72369;SDS011;60343;-32.030;115.880;2022-09-09T05:31:19;2.88;;;0.50;;
72369;SDS011;60343;-32.030;115.880;2022-09-09T05:33:48;3.17;;;0.52;;
72369;SDS011;60343;-32.030;115.880;2022-09-09T05:36:17;3.70;;;0.60;;
72369;SDS011;60343;-32.030;115.880;2022-09-09T05:38:46;3.75;;;0.52;;
72369;SDS011;60343;-32.030;115.880;2022-09-09T05:41:21;2.40;;;0.50;;
72369;SDS011;60343;-32.030;115.880;2022-09-09T05:43:49;2.53;;;0.47;;
72369;SDS011;60343;-32.030;115.880;2022-09-09T05:46:20;1.67;;;0.20;;
72369;SDS011;60343;-32.030;115.880;2022-09-09T05:48:49;1.83;;;0.40;;
72369;SDS011;60343;-32.030;115.880;2022-09-09T05:51:18;2.03;;;0.43;;
72369;SDS011;60343;-32.030;115.880;2022-09-09T05:53:47;2.25;;;0.43;;
72369;SDS011;60343;-32.030;115.880;2022-09-09T05:56:23;3.08;;;0.40;;
72369;SDS011;60343;-32.030;115.880;2022-09-09T05:58:52;1.42;;;0.30;;
72369;SDS011;60343;-32.030;115.880;2022-09-09T06:01:24;1.95;;;0.40;;
72369;SDS011;60343;-32.030;115.880;2022-09-09T06:03:53;1.40;;;0.30;;
72369;SDS011;60343;-32.030;115.880;2022-09-09T06:06:22;2.63;;;0.60;;
72369;SDS011;60343;-32.030;115.880;2022-09-09T06:08:55;4.15;;;0.52;;
72369;SDS011;60343;-32.030;115.880;2022-09-09T06:11:34;2.15;;;0.50;;
72369;SDS011;60343;-32.030;115.880;2022-09-09T06:14:03;1.48;;;0.30;;
72369;SDS011;60343;-32.030;115.880;2022-09-09T06:16:31;1.58;;;0.40;;
72369;SDS011;60343;-32.030;115.880;2022-09-09T06:19:00;1.95;;;0.30;;
72369;SDS011;60343;-32.030;115.880;2022-09-09T06:21:29;1.75;;;0.50;;
72369;SDS011;60343;-32.030;115.880;2022-09-09T06:23:58;2.08;;;0.40;;
72369;SDS011;60343;-32.030;115.880;2022-09-09T06:26:33;1.35;;;0.20;;
72369;SDS011;60343;-32.030;115.880;2022-09-09T06:29:02;2.08;;;0.32;;
72369;SDS011;60343;-32.030;115.880;2022-09-09T06:31:31;2.85;;;0.40;;
72369;SDS011;60343;-32.030;115.880;2022-09-09T06:34:01;1.27;;;0.35;;
72369;SDS011;60343;-32.030;115.880;2022-09-09T06:36:31;2.72;;;0.30;;
72369;SDS011;60343;-32.030;115.880;2022-09-09T06:39:02;2.53;;;0.50;;
72369;SDS011;60343;-32.030;115.880;2022-09-09T06:41:37;3.33;;;0.50;;
72369;SDS011;60343;-32.030;115.880;2022-09-09T06:44:05;1.45;;;0.30;;
72369;SDS011;60343;-32.030;115.880;2022-09-09T06:46:36;2.10;;;0.40;;
72369;SDS011;60343;-32.030;115.880;2022-09-09T06:52:06;1.40;;;0.40;;
72369;SDS011;60343;-32.030;115.880;2022-09-09T06:54:34;2.05;;;0.38;;
72369;SDS011;60343;-32.030;115.880;2022-09-09T06:57:08;2.08;;;0.40;;
72369;SDS011;60343;-32.030;115.880;2022-09-09T06:59:38;5.05;;;0.50;;
72369;SDS011;60343;-32.030;115.880;2022-09-09T07:02:07;1.25;;;0.28;;
72369;SDS011;60343;-32.030;115.880;2022-09-09T07:04:37;1.10;;;0.35;;
72369;SDS011;60343;-32.030;115.880;2022-09-09T07:07:05;3.17;;;0.47;;
72369;SDS011;60343;-32.030;115.880;2022-09-09T07:09:34;1.30;;;0.30;;
72369;SDS011;60343;-32.030;115.880;2022-09-09T07:12:15;1.45;;;0.30;;
72369;SDS011;60343;-32.030;115.880;2022-09-09T07:14:43;2.08;;;0.30;;
72369;SDS011;60343;-32.030;115.880;2022-09-09T07:17:11;3.28;;;0.30;;
72369;SDS011;60343;-32.030;115.880;2022-09-09T07:19:39;2.95;;;0.45;;
72369;SDS011;60343;-32.030;115.880;2022-09-09T07:22:10;1.90;;;0.40;;
72369;SDS011;60343;-32.030;115.880;2022-09-09T07:24:38;1.33;;;0.38;;
72369;SDS011;60343;-32.030;115.880;2022-09-09T07:29:59;1.80;;;0.30;;
72369;SDS011;60343;-32.030;115.880;2022-09-09T07:32:27;0.70;;;0.20;;
72369;SDS011;60343;-32.030;115.880;2022-09-09T07:34:58;1.88;;;0.30;;
72369;SDS011;60343;-32.030;115.880;2022-09-09T07:37:31;2.00;;;0.50;;
72369;SDS011;60343;-32.030;115.880;2022-09-09T07:40:02;1.70;;;0.20;;
72369;SDS011;60343;-32.030;115.880;2022-09-09T07:42:37;2.15;;;0.30;;
72369;SDS011;60343;-32.030;115.880;2022-09-09T07:45:06;1.48;;;0.32;;
72369;SDS011;60343;-32.030;115.880;2022-09-09T07:47:34;0.85;;;0.25;;
72369;SDS011;60343;-32.030;115.880;2022-09-09T07:50:02;2.45;;;0.50;;
72369;SDS011;60343;-32.030;115.880;2022-09-09T07:52:30;1.45;;;0.30;;
72369;SDS011;60343;-32.030;115.880;2022-09-09T07:55:02;1.15;;;0.30;;
72369;SDS011;60343;-32.030;115.880;2022-09-09T07:57:30;2.17;;;0.40;;
72369;SDS011;60343;-32.030;115.880;2022-09-09T08:00:05;0.80;;;0.20;;
72369;SDS011;60343;-32.030;115.880;2022-09-09T08:02:33;1.23;;;0.20;;
72369;SDS011;60343;-32.030;115.880;2022-09-09T08:05:02;2.55;;;0.25;;
72369;SDS011;60343;-32.030;115.880;2022-09-09T08:07:30;0.73;;;0.20;;
72369;SDS011;60343;-32.030;115.880;2022-09-09T08:09:58;1.25;;;0.30;;
72369;SDS011;60343;-32.030;115.880;2022-09-09T08:12:29;4.97;;;0.32;;
72369;SDS011;60343;-32.030;115.880;2022-09-09T08:15:03;1.55;;;0.40;;
72369;SDS011;60343;-32.030;115.880;2022-09-09T08:17:32;1.73;;;0.38;;
72369;SDS011;60343;-32.030;115.880;2022-09-09T08:20:00;0.98;;;0.25;;
72369;SDS011;60343;-32.030;115.880;2022-09-09T08:22:28;1.60;;;0.40;;
72369;SDS011;60343;-32.030;115.880;2022-09-09T08:24:56;1.42;;;0.30;;
72369;SDS011;60343;-32.030;115.880;2022-09-09T08:27:24;2.00;;;0.30;;
72369;SDS011;60343;-32.030;115.880;2022-09-09T08:29:52;3.20;;;0.40;;
72369;SDS011;60343;-32.030;115.880;2022-09-09T08:32:26;0.73;;;0.30;;
72369;SDS011;60343;-32.030;115.880;2022-09-09T08:34:54;1.13;;;0.30;;
72369;SDS011;60343;-32.030;115.880;2022-09-09T08:37:22;4.07;;;0.30;;
72369;SDS011;60343;-32.030;115.880;2022-09-09T08:39:50;1.17;;;0.30;;
72369;SDS011;60343;-32.030;115.880;2022-09-09T08:42:22;0.63;;;0.20;;
72369;SDS011;60343;-32.030;115.880;2022-09-09T08:45:05;2.95;;;0.90;;
72369;SDS011;60343;-32.030;115.880;2022-09-09T08:47:52;1.00;;;0.30;;
72369;SDS011;60343;-32.030;115.880;2022-09-09T08:52:59;0.40;;;0.20;;
72369;SDS011;60343;-32.030;115.880;2022-09-09T08:55:34;2.63;;;0.30;;
72369;SDS011;60343;-32.030;115.880;2022-09-09T08:58:09;1.85;;;0.40;;
72369;SDS011;60343;-32.030;115.880;2022-09-09T09:00:42;1.75;;;0.52;;
72369;SDS011;60343;-32.030;115.880;2022-09-09T09:03:43;6.90;;;0.50;;
72369;SDS011;60343;-32.030;115.880;2022-09-09T09:06:20;2.97;;;0.50;;
72369;SDS011;60343;-32.030;115.880;2022-09-09T09:09:02;1.35;;;0.40;;
72369;SDS011;60343;-32.030;115.880;2022-09-09T09:11:35;2.33;;;0.52;;
72369;SDS011;60343;-32.030;115.880;2022-09-09T09:14:08;2.60;;;0.43;;
72369;SDS011;60343;-32.030;115.880;2022-09-09T09:16:43;1.95;;;0.50;;
72369;SDS011;60343;-32.030;115.880;2022-09-09T09:19:22;0.80;;;0.30;;
72369;SDS011;60343;-32.030;115.880;2022-09-09T09:21:53;3.83;;;0.50;;
72369;SDS011;60343;-32.030;115.880;2022-09-09T09:24:27;3.42;;;0.40;;
72369;SDS011;60343;-32.030;115.880;2022-09-09T09:27:04;2.20;;;0.40;;
72369;SDS011;60343;-32.030;115.880;2022-09-09T09:29:38;1.55;;;0.43;;
72369;SDS011;60343;-32.030;115.880;2022-09-09T09:32:08;2.08;;;0.60;;
72369;SDS011;60343;-32.030;115.880;2022-09-09T09:34:48;2.97;;;0.88;;
72369;SDS011;60343;-32.030;115.880;2022-09-09T09:37:20;1.85;;;0.50;;
72369;SDS011;60343;-32.030;115.880;2022-09-09T09:39:52;2.30;;;0.63;;
72369;SDS011;60343;-32.030;115.880;2022-09-09T09:42:20;2.65;;;0.50;;
72369;SDS011;60343;-32.030;115.880;2022-09-09T09:44:49;1.98;;;0.60;;
72369;SDS011;60343;-32.030;115.880;2022-09-09T09:47:17;2.45;;;0.60;;
72369;SDS011;60343;-32.030;115.880;2022-09-09T09:49:59;2.80;;;0.68;;
72369;SDS011;60343;-32.030;115.880;2022-09-09T09:52:28;2.88;;;0.60;;
72369;SDS011;60343;-32.030;115.880;2022-09-09T09:54:59;2.38;;;0.50;;
72369;SDS011;60343;-32.030;115.880;2022-09-09T09:57:32;3.90;;;0.50;;
72369;SDS011;60343;-32.030;115.880;2022-09-09T10:00:02;4.85;;;0.70;;
72369;SDS011;60343;-32.030;115.880;2022-09-09T10:02:41;4.00;;;0.80;;
72369;SDS011;60343;-32.030;115.880;2022-09-09T10:05:19;5.32;;;0.73;;
72369;SDS011;60343;-32.030;115.880;2022-09-09T10:08:03;1.67;;;0.40;;
72369;SDS011;60343;-32.030;115.880;2022-09-09T10:10:42;2.92;;;0.77;;
72369;SDS011;60343;-32.030;115.880;2022-09-09T10:15:54;3.33;;;0.73;;
72369;SDS011;60343;-32.030;115.880;2022-09-09T10:18:38;3.40;;;0.75;;
72369;SDS011;60343;-32.030;115.880;2022-09-09T10:21:24;6.88;;;0.80;;
72369;SDS011;60343;-32.030;115.880;2022-09-09T10:24:07;3.15;;;1.00;;
72369;SDS011;60343;-32.030;115.880;2022-09-09T10:26:50;3.50;;;1.05;;
72369;SDS011;60343;-32.030;115.880;2022-09-09T10:29:28;7.13;;;0.93;;
72369;SDS011;60343;-32.030;115.880;2022-09-09T10:32:20;2.53;;;0.70;;
72369;SDS011;60343;-32.030;115.880;2022-09-09T10:35:02;2.85;;;0.70;;
72369;SDS011;60343;-32.030;115.880;2022-09-09T10:37:46;3.55;;;0.55;;
72369;SDS011;60343;-32.030;115.880;2022-09-09T10:40:32;2.33;;;0.70;;
72369;SDS011;60343;-32.030;115.880;2022-09-09T10:43:16;4.05;;;0.93;;
72369;SDS011;60343;-32.030;115.880;2022-09-09T10:45:55;3.00;;;0.90;;
72369;SDS011;60343;-32.030;115.880;2022-09-09T10:48:35;3.00;;;0.88;;
72369;SDS011;60343;-32.030;115.880;2022-09-09T10:51:16;4.30;;;1.00;;
72369;SDS011;60343;-32.030;115.880;2022-09-09T10:53:58;3.30;;;0.85;;
72369;SDS011;60343;-32.030;115.880;2022-09-09T10:56:38;12.02;;;5.05;;
72369;SDS011;60343;-32.030;115.880;2022-09-09T10:59:11;7.07;;;2.55;;
72369;SDS011;60343;-32.030;115.880;2022-09-09T11:01:44;4.32;;;1.40;;
72369;SDS011;60343;-32.030;115.880;2022-09-09T11:04:19;6.13;;;1.67;;
72369;SDS011;60343;-32.030;115.880;2022-09-09T11:06:50;3.80;;;1.70;;
72369;SDS011;60343;-32.030;115.880;2022-09-09T11:09:27;7.82;;;1.48;;
72369;SDS011;60343;-32.030;115.880;2022-09-09T11:11:59;5.55;;;2.05;;
72369;SDS011;60343;-32.030;115.880;2022-09-09T11:14:29;2.92;;;1.13;;
72369;SDS011;60343;-32.030;115.880;2022-09-09T11:17:03;4.63;;;1.20;;
72369;SDS011;60343;-32.030;115.880;2022-09-09T11:19:39;4.78;;;0.98;;
72369;SDS011;60343;-32.030;115.880;2022-09-09T11:22:08;3.58;;;1.10;;
72369;SDS011;60343;-32.030;115.880;2022-09-09T11:24:52;2.88;;;1.02;;
72369;SDS011;60343;-32.030;115.880;2022-09-09T11:27:24;6.40;;;1.40;;
72369;SDS011;60343;-32.030;115.880;2022-09-09T11:33:03;4.72;;;1.60;;
72369;SDS011;60343;-32.030;115.880;2022-09-09T11:35:56;5.78;;;1.70;;
72369;SDS011;60343;-32.030;115.880;2022-09-09T11:38:36;6.30;;;2.20;;
72369;SDS011;60343;-32.030;115.880;2022-09-09T11:41:16;7.53;;;2.72;;
72369;SDS011;60343;-32.030;115.880;2022-09-09T11:43:47;5.95;;;3.50;;
72369;SDS011;60343;-32.030;115.880;2022-09-09T11:46:18;7.38;;;3.28;;
72369;SDS011;60343;-32.030;115.880;2022-09-09T11:48:58;6.30;;;2.20;;
72369;SDS011;60343;-32.030;115.880;2022-09-09T11:51:27;4.93;;;1.20;;
72369;SDS011;60343;-32.030;115.880;2022-09-09T11:53:57;5.30;;;1.42;;
72369;SDS011;60343;-32.030;115.880;2022-09-09T11:56:32;5.50;;;1.42;;
72369;SDS011;60343;-32.030;115.880;2022-09-09T11:59:19;7.78;;;1.50;;
72369;SDS011;60343;-32.030;115.880;2022-09-09T12:01:49;3.20;;;1.20;;
72369;SDS011;60343;-32.030;115.880;2022-09-09T12:07:05;4.07;;;1.30;;
72369;SDS011;60343;-32.030;115.880;2022-09-09T12:09:54;5.95;;;1.20;;
72369;SDS011;60343;-32.030;115.880;2022-09-09T12:12:32;3.83;;;1.13;;
72369;SDS011;60343;-32.030;115.880;2022-09-09T12:15:03;6.25;;;1.40;;
72369;SDS011;60343;-32.030;115.880;2022-09-09T12:17:52;5.60;;;1.10;;
72369;SDS011;60343;-32.030;115.880;2022-09-09T12:20:21;5.15;;;1.50;;
72369;SDS011;60343;-32.030;115.880;2022-09-09T12:26:09;6.53;;;1.90;;
72369;SDS011;60343;-32.030;115.880;2022-09-09T12:29:00;9.02;;;2.00;;
72369;SDS011;60343;-32.030;115.880;2022-09-09T12:31:43;4.68;;;1.30;;
72369;SDS011;60343;-32.030;115.880;2022-09-09T12:34:22;5.93;;;1.42;;
72369;SDS011;60343;-32.030;115.880;2022-09-09T12:36:59;6.53;;;1.42;;
72369;SDS011;60343;-32.030;115.880;2022-09-09T12:39:32;4.88;;;1.20;;
72369;SDS011;60343;-32.030;115.880;2022-09-09T12:42:04;3.75;;;1.30;;
72369;SDS011;60343;-32.030;115.880;2022-09-09T12:44:49;4.75;;;1.27;;
72369;SDS011;60343;-32.030;115.880;2022-09-09T12:47:22;5.15;;;1.60;;
72369;SDS011;60343;-32.030;115.880;2022-09-09T12:49:56;4.40;;;1.33;;
72369;SDS011;60343;-32.030;115.880;2022-09-09T12:52:26;6.47;;;1.75;;
72369;SDS011;60343;-32.030;115.880;2022-09-09T12:54:57;7.25;;;2.00;;
72369;SDS011;60343;-32.030;115.880;2022-09-09T12:57:29;5.72;;;2.05;;
72369;SDS011;60343;-32.030;115.880;2022-09-09T13:00:17;6.25;;;1.70;;
72369;SDS011;60343;-32.030;115.880;2022-09-09T13:05:15;6.93;;;2.13;;
72369;SDS011;60343;-32.030;115.880;2022-09-09T13:07:45;5.28;;;1.80;;
72369;SDS011;60343;-32.030;115.880;2022-09-09T13:10:14;4.72;;;2.10;;
72369;SDS011;60343;-32.030;115.880;2022-09-09T13:12:47;4.68;;;1.73;;
72369;SDS011;60343;-32.030;115.880;2022-09-09T13:15:26;5.07;;;2.00;;
72369;SDS011;60343;-32.030;115.880;2022-09-09T13:17:56;6.03;;;2.33;;
72369;SDS011;60343;-32.030;115.880;2022-09-09T13:20:33;4.60;;;2.45;;
72369;SDS011;60343;-32.030;115.880;2022-09-09T13:23:04;6.65;;;2.80;;
72369;SDS011;60343;-32.030;115.880;2022-09-09T13:25:37;8.40;;;2.80;;
72369;SDS011;60343;-32.030;115.880;2022-09-09T13:28:20;7.10;;;2.90;;
72369;SDS011;60343;-32.030;115.880;2022-09-09T13:33:45;8.38;;;3.45;;
72369;SDS011;60343;-32.030;115.880;2022-09-09T13:36:13;11.05;;;3.95;;
72369;SDS011;60343;-32.030;115.880;2022-09-09T13:38:53;8.43;;;3.88;;
72369;SDS011;60343;-32.030;115.880;2022-09-09T13:41:22;8.60;;;3.53;;
72369;SDS011;60343;-32.030;115.880;2022-09-09T13:44:01;10.02;;;3.58;;
72369;SDS011;60343;-32.030;115.880;2022-09-09T13:46:39;9.75;;;3.45;;
72369;SDS011;60343;-32.030;115.880;2022-09-09T13:49:19;7.97;;;3.67;;
72369;SDS011;60343;-32.030;115.880;2022-09-09T13:52:08;6.50;;;2.80;;
72369;SDS011;60343;-32.030;115.880;2022-09-09T13:54:37;8.80;;;3.10;;
72369;SDS011;60343;-32.030;115.880;2022-09-09T13:57:12;7.63;;;2.83;;
72369;SDS011;60343;-32.030;115.880;2022-09-09T13:59:45;8.18;;;2.90;;
72369;SDS011;60343;-32.030;115.880;2022-09-09T14:02:22;7.70;;;2.70;;
72369;SDS011;60343;-32.030;115.880;2022-09-09T14:04:57;7.90;;;3.13;;
72369;SDS011;60343;-32.030;115.880;2022-09-09T14:07:25;5.47;;;2.72;;
72369;SDS011;60343;-32.030;115.880;2022-09-09T14:09:53;6.13;;;2.55;;
72369;SDS011;60343;-32.030;115.880;2022-09-09T14:21:15;6.82;;;2.13;;
72369;SDS011;60343;-32.030;115.880;2022-09-09T14:23:48;5.35;;;2.25;;
72369;SDS011;60343;-32.030;115.880;2022-09-09T14:26:16;8.35;;;2.05;;
72369;SDS011;60343;-32.030;115.880;2022-09-09T14:28:44;6.20;;;2.17;;
72369;SDS011;60343;-32.030;115.880;2022-09-09T14:31:12;5.65;;;2.33;;
72369;SDS011;60343;-32.030;115.880;2022-09-09T14:33:41;4.57;;;2.17;;
72369;SDS011;60343;-32.030;115.880;2022-09-09T14:36:17;5.68;;;2.35;;
72369;SDS011;60343;-32.030;115.880;2022-09-09T14:38:45;6.47;;;2.28;;
72369;SDS011;60343;-32.030;115.880;2022-09-09T14:41:17;6.78;;;2.92;;
72369;SDS011;60343;-32.030;115.880;2022-09-09T14:43:45;5.75;;;2.47;;
72369;SDS011;60343;-32.030;115.880;2022-09-09T14:46:15;6.15;;;2.60;;
72369;SDS011;60343;-32.030;115.880;2022-09-09T14:48:47;6.78;;;2.50;;
72369;SDS011;60343;-32.030;115.880;2022-09-09T14:51:22;5.95;;;2.33;;
72369;SDS011;60343;-32.030;115.880;2022-09-09T14:53:51;6.90;;;2.50;;
72369;SDS011;60343;-32.030;115.880;2022-09-09T14:56:23;6.18;;;2.42;;
72369;SDS011;60343;-32.030;115.880;2022-09-09T14:58:53;6.25;;;2.40;;
72369;SDS011;60343;-32.030;115.880;2022-09-09T15:01:22;7.22;;;2.08;;
72369;SDS011;60343;-32.030;115.880;2022-09-09T15:03:51;6.10;;;2.30;;
72369;SDS011;60343;-32.030;115.880;2022-09-09T15:06:29;5.38;;;2.03;;
72369;SDS011;60343;-32.030;115.880;2022-09-09T15:11:29;6.10;;;2.03;;
72369;SDS011;60343;-32.030;115.880;2022-09-09T15:14:00;7.75;;;2.30;;
72369;SDS011;60343;-32.030;115.880;2022-09-09T15:16:28;6.07;;;2.33;;
72369;SDS011;60343;-32.030;115.880;2022-09-09T15:19:12;5.55;;;2.45;;
72369;SDS011;60343;-32.030;115.880;2022-09-09T15:21:51;8.38;;;2.10;;
72369;SDS011;60343;-32.030;115.880;2022-09-09T15:24:19;6.25;;;2.20;;